sensor_id;sensor_type;location;lat;lon;timestamp;noise_LAeq;noise_LA_min;noise_LA_max;noise_LA01;noise_LA95
69620;Laerm;57654;51.434;5.984;2022-08-30T00:00:15;48.13;32.75;54.04;;
69620;Laerm;57654;51.434;5.984;2022-08-30T00:00:48;50.07;31.34;55.62;;
69620;Laerm;57654;51.434;5.984;2022-08-30T00:01:25;32.38;30.50;36.30;;
69620;Laerm;57654;51.434;5.984;2022-08-30T00:01:36;38.26;30.34;48.60;;
69620;Laerm;57654;51.434;5.984;2022-08-30T00:01:46;50.52;45.41;53.41;;
69620;Laerm;57654;51.434;5.984;2022-08-30T00:01:57;50.00;46.26;53.10;;
69620;Laerm;57654;51.434;5.984;2022-08-30T00:02:07;43.92;36.23;48.85;;
69620;Laerm;57654;51.434;5.984;2022-08-30T00:02:17;36.78;34.46;39.75;;
69620;Laerm;57654;51.434;5.984;2022-08-30T00:02:29;34.83;31.82;37.13;;
69620;Laerm;57654;51.434;5.984;2022-08-30T00:02:39;32.78;30.98;34.42;;
69620;Laerm;57654;51.434;5.984;2022-08-30T00:02:50;32.97;31.31;35.23;;
69620;Laerm;57654;51.434;5.984;2022-08-30T00:03:00;32.82;30.99;35.35;;
69620;Laerm;57654;51.434;5.984;2022-08-30T00:03:11;32.78;30.64;35.12;;
69620;Laerm;57654;51.434;5.984;2022-08-30T00:03:23;32.83;30.64;35.79;;
69620;Laerm;57654;51.434;5.984;2022-08-30T00:03:38;32.88;30.76;35.76;;
69620;Laerm;57654;51.434;5.984;2022-08-30T00:03:54;32.50;30.71;35.50;;
69620;Laerm;57654;51.434;5.984;2022-08-30T00:04:05;32.02;30.32;33.82;;
69620;Laerm;57654;51.434;5.984;2022-08-30T00:04:16;32.10;30.56;34.15;;
69620;Laerm;57654;51.434;5.984;2022-08-30T00:04:26;32.15;30.83;33.72;;
69620;Laerm;57654;51.434;5.984;2022-08-30T00:04:36;32.17;30.51;34.37;;
69620;Laerm;57654;51.434;5.984;2022-08-30T00:04:47;32.08;30.50;33.70;;
69620;Laerm;57654;51.434;5.984;2022-08-30T00:04:57;32.23;30.52;34.23;;
69620;Laerm;57654;51.434;5.984;2022-08-30T00:05:10;32.31;30.48;34.05;;
69620;Laerm;57654;51.434;5.984;2022-08-30T00:05:22;32.16;30.68;34.18;;
69620;Laerm;57654;51.434;5.984;2022-08-30T00:05:33;32.11;30.58;34.01;;
69620;Laerm;57654;51.434;5.984;2022-08-30T00:05:44;32.05;30.49;35.15;;
69620;Laerm;57654;51.434;5.984;2022-08-30T00:05:54;32.07;30.45;35.73;;
69620;Laerm;57654;51.434;5.984;2022-08-30T00:06:05;31.98;30.58;33.27;;
69620;Laerm;57654;51.434;5.984;2022-08-30T00:06:16;32.29;30.48;36.94;;
69620;Laerm;57654;51.434;5.984;2022-08-30T00:06:27;32.18;30.89;34.02;;
69620;Laerm;57654;51.434;5.984;2022-08-30T00:06:40;32.13;30.32;34.60;;
69620;Laerm;57654;51.434;5.984;2022-08-30T00:06:50;32.05;30.42;33.85;;
69620;Laerm;57654;51.434;5.984;2022-08-30T00:07:01;32.05;30.28;35.78;;
69620;Laerm;57654;51.434;5.984;2022-08-30T00:07:12;32.01;30.35;34.44;;
69620;Laerm;57654;51.434;5.984;2022-08-30T00:07:23;32.09;30.51;34.38;;
69620;Laerm;57654;51.434;5.984;2022-08-30T00:07:34;32.15;30.55;34.03;;
69620;Laerm;57654;51.434;5.984;2022-08-30T00:07:44;32.25;30.67;34.30;;
69620;Laerm;57654;51.434;5.984;2022-08-30T00:07:55;32.76;31.09;35.14;;
69620;Laerm;57654;51.434;5.984;2022-08-30T00:08:06;32.62;30.57;34.49;;
69620;Laerm;57654;51.434;5.984;2022-08-30T00:08:17;32.82;31.14;34.72;;
69620;Laerm;57654;51.434;5.984;2022-08-30T00:08:27;32.84;31.15;35.50;;
69620;Laerm;57654;51.434;5.984;2022-08-30T00:08:37;32.97;31.51;35.33;;
69620;Laerm;57654;51.434;5.984;2022-08-30T00:08:50;33.06;30.39;36.47;;
69620;Laerm;57654;51.434;5.984;2022-08-30T00:09:00;33.02;30.61;35.82;;
69620;Laerm;57654;51.434;5.984;2022-08-30T00:09:11;33.35;30.78;36.03;;
69620;Laerm;57654;51.434;5.984;2022-08-30T00:09:21;38.30;31.85;43.88;;
69620;Laerm;57654;51.434;5.984;2022-08-30T00:09:32;47.55;42.73;49.70;;
69620;Laerm;57654;51.434;5.984;2022-08-30T00:09:42;48.39;46.11;50.40;;
69620;Laerm;57654;51.434;5.984;2022-08-30T00:09:52;45.73;41.35;48.42;;
69620;Laerm;57654;51.434;5.984;2022-08-30T00:10:03;38.55;36.05;42.19;;
69620;Laerm;57654;51.434;5.984;2022-08-30T00:10:14;36.56;34.87;38.31;;
69620;Laerm;57654;51.434;5.984;2022-08-30T00:10:25;35.33;33.54;37.27;;
69620;Laerm;57654;51.434;5.984;2022-08-30T00:10:36;38.26;34.18;42.50;;
69620;Laerm;57654;51.434;5.984;2022-08-30T00:10:47;47.37;41.47;49.87;;
69620;Laerm;57654;51.434;5.984;2022-08-30T00:11:00;48.19;46.15;50.98;;
69620;Laerm;57654;51.434;5.984;2022-08-30T00:11:12;48.54;42.22;51.63;;
69620;Laerm;57654;51.434;5.984;2022-08-30T00:11:24;36.56;31.41;43.12;;
69620;Laerm;57654;51.434;5.984;2022-08-30T00:11:35;32.61;30.91;34.89;;
69620;Laerm;57654;51.434;5.984;2022-08-30T00:11:45;32.35;30.67;34.17;;
69620;Laerm;57654;51.434;5.984;2022-08-30T00:11:55;32.42;30.80;34.20;;
69620;Laerm;57654;51.434;5.984;2022-08-30T00:12:06;32.67;31.15;36.57;;
69620;Laerm;57654;51.434;5.984;2022-08-30T00:12:18;32.32;30.69;34.71;;
69620;Laerm;57654;51.434;5.984;2022-08-30T00:12:30;32.35;30.31;34.36;;
69620;Laerm;57654;51.434;5.984;2022-08-30T00:12:41;36.76;30.89;57.36;;
69620;Laerm;57654;51.434;5.984;2022-08-30T00:12:52;32.38;30.66;34.51;;
69620;Laerm;57654;51.434;5.984;2022-08-30T00:13:03;32.38;30.66;35.24;;
69620;Laerm;57654;51.434;5.984;2022-08-30T00:13:14;32.14;30.87;33.70;;
69620;Laerm;57654;51.434;5.984;2022-08-30T00:13:24;32.50;30.91;34.32;;
69620;Laerm;57654;51.434;5.984;2022-08-30T00:13:38;32.36;30.73;34.61;;
69620;Laerm;57654;51.434;5.984;2022-08-30T00:13:50;32.19;30.40;34.01;;
69620;Laerm;57654;51.434;5.984;2022-08-30T00:14:01;32.19;30.60;37.90;;
69620;Laerm;57654;51.434;5.984;2022-08-30T00:14:11;32.17;30.42;34.36;;
69620;Laerm;57654;51.434;5.984;2022-08-30T00:14:22;32.13;29.81;34.06;;
69620;Laerm;57654;51.434;5.984;2022-08-30T00:14:32;32.09;30.09;34.12;;
69620;Laerm;57654;51.434;5.984;2022-08-30T00:14:42;32.26;30.37;34.22;;
69620;Laerm;57654;51.434;5.984;2022-08-30T00:14:52;32.74;31.09;34.67;;
69620;Laerm;57654;51.434;5.984;2022-08-30T00:15:03;32.43;30.77;34.97;;
69620;Laerm;57654;51.434;5.984;2022-08-30T00:15:15;32.21;30.86;35.06;;
69620;Laerm;57654;51.434;5.984;2022-08-30T00:15:26;32.13;30.48;34.08;;
69620;Laerm;57654;51.434;5.984;2022-08-30T00:15:37;32.06;30.27;33.73;;
69620;Laerm;57654;51.434;5.984;2022-08-30T00:15:47;32.10;30.19;33.98;;
69620;Laerm;57654;51.434;5.984;2022-08-30T00:15:57;32.40;30.39;34.88;;
69620;Laerm;57654;51.434;5.984;2022-08-30T00:16:08;32.27;30.28;34.01;;
69620;Laerm;57654;51.434;5.984;2022-08-30T00:16:20;32.26;30.54;34.57;;
69620;Laerm;57654;51.434;5.984;2022-08-30T00:16:30;32.25;30.65;34.54;;
69620;Laerm;57654;51.434;5.984;2022-08-30T00:16:40;32.29;30.96;34.13;;
69620;Laerm;57654;51.434;5.984;2022-08-30T00:16:51;32.12;30.45;33.83;;
69620;Laerm;57654;51.434;5.984;2022-08-30T00:17:01;32.29;30.49;34.30;;
69620;Laerm;57654;51.434;5.984;2022-08-30T00:17:11;32.32;30.46;34.82;;
69620;Laerm;57654;51.434;5.984;2022-08-30T00:17:22;32.29;30.86;34.27;;
69620;Laerm;57654;51.434;5.984;2022-08-30T00:17:32;32.36;30.67;35.25;;
69620;Laerm;57654;51.434;5.984;2022-08-30T00:17:42;32.10;30.52;33.82;;
69620;Laerm;57654;51.434;5.984;2022-08-30T00:17:52;32.30;30.85;34.83;;
69620;Laerm;57654;51.434;5.984;2022-08-30T00:18:03;32.00;30.33;34.12;;
69620;Laerm;57654;51.434;5.984;2022-08-30T00:18:14;32.09;30.47;34.11;;
69620;Laerm;57654;51.434;5.984;2022-08-30T00:18:27;31.96;30.55;33.86;;
69620;Laerm;57654;51.434;5.984;2022-08-30T00:18:37;32.07;30.53;34.71;;
69620;Laerm;57654;51.434;5.984;2022-08-30T00:18:48;32.36;30.49;34.53;;
69620;Laerm;57654;51.434;5.984;2022-08-30T00:18:58;42.55;31.54;49.29;;
69620;Laerm;57654;51.434;5.984;2022-08-30T00:19:10;49.72;46.52;51.92;;
69620;Laerm;57654;51.434;5.984;2022-08-30T00:19:20;47.13;44.68;49.08;;
69620;Laerm;57654;51.434;5.984;2022-08-30T00:19:31;42.45;36.64;47.07;;
69620;Laerm;57654;51.434;5.984;2022-08-30T00:19:41;37.39;34.79;39.17;;
69620;Laerm;57654;51.434;5.984;2022-08-30T00:19:51;34.28;32.17;37.98;;
69620;Laerm;57654;51.434;5.984;2022-08-30T00:20:03;33.12;31.59;34.86;;
69620;Laerm;57654;51.434;5.984;2022-08-30T00:20:16;33.25;31.53;38.35;;
69620;Laerm;57654;51.434;5.984;2022-08-30T00:20:28;33.16;31.41;35.52;;
69620;Laerm;57654;51.434;5.984;2022-08-30T00:20:39;33.24;31.04;35.07;;
69620;Laerm;57654;51.434;5.984;2022-08-30T00:20:49;32.59;31.09;35.00;;
69620;Laerm;57654;51.434;5.984;2022-08-30T00:21:00;32.13;30.44;34.00;;
69620;Laerm;57654;51.434;5.984;2022-08-30T00:21:10;32.43;31.02;35.23;;
69620;Laerm;57654;51.434;5.984;2022-08-30T00:21:21;32.36;30.79;34.02;;
69620;Laerm;57654;51.434;5.984;2022-08-30T00:21:31;32.35;30.69;34.09;;
69620;Laerm;57654;51.434;5.984;2022-08-30T00:21:42;32.31;30.80;34.33;;
69620;Laerm;57654;51.434;5.984;2022-08-30T00:21:52;32.18;30.63;34.59;;
69620;Laerm;57654;51.434;5.984;2022-08-30T00:22:03;36.14;30.53;44.17;;
69620;Laerm;57654;51.434;5.984;2022-08-30T00:22:13;50.58;40.75;54.16;;
69620;Laerm;57654;51.434;5.984;2022-08-30T00:22:24;51.53;49.19;53.70;;
69620;Laerm;57654;51.434;5.984;2022-08-30T00:22:34;48.76;43.92;51.85;;
69620;Laerm;57654;51.434;5.984;2022-08-30T00:22:44;40.66;36.82;45.89;;
69620;Laerm;57654;51.434;5.984;2022-08-30T00:22:55;36.17;33.77;38.39;;
69620;Laerm;57654;51.434;5.984;2022-08-30T00:23:05;36.75;34.17;39.59;;
69620;Laerm;57654;51.434;5.984;2022-08-30T00:23:16;35.09;32.28;41.02;;
69620;Laerm;57654;51.434;5.984;2022-08-30T00:23:26;33.82;32.26;35.63;;
69620;Laerm;57654;51.434;5.984;2022-08-30T00:23:37;33.08;31.82;34.56;;
69620;Laerm;57654;51.434;5.984;2022-08-30T00:23:48;33.03;30.99;35.06;;
69620;Laerm;57654;51.434;5.984;2022-08-30T00:23:58;33.24;31.59;37.90;;
69620;Laerm;57654;51.434;5.984;2022-08-30T00:24:09;33.13;31.29;35.13;;
69620;Laerm;57654;51.434;5.984;2022-08-30T00:24:19;34.46;31.48;48.41;;
69620;Laerm;57654;51.434;5.984;2022-08-30T00:24:29;32.99;31.08;35.81;;
69620;Laerm;57654;51.434;5.984;2022-08-30T00:24:39;32.89;31.17;35.45;;
69620;Laerm;57654;51.434;5.984;2022-08-30T00:24:50;32.61;31.09;34.23;;
69620;Laerm;57654;51.434;5.984;2022-08-30T00:25:00;32.57;30.73;37.57;;
69620;Laerm;57654;51.434;5.984;2022-08-30T00:25:11;32.34;30.70;34.84;;
69620;Laerm;57654;51.434;5.984;2022-08-30T00:25:21;32.45;30.79;34.81;;
69620;Laerm;57654;51.434;5.984;2022-08-30T00:25:32;32.51;30.76;34.29;;
69620;Laerm;57654;51.434;5.984;2022-08-30T00:25:42;32.60;30.81;35.83;;
69620;Laerm;57654;51.434;5.984;2022-08-30T00:25:53;32.75;30.80;34.72;;
69620;Laerm;57654;51.434;5.984;2022-08-30T00:26:04;32.36;30.37;34.91;;
69620;Laerm;57654;51.434;5.984;2022-08-30T00:26:14;32.30;30.49;34.28;;
69620;Laerm;57654;51.434;5.984;2022-08-30T00:26:24;32.19;30.66;33.93;;
69620;Laerm;57654;51.434;5.984;2022-08-30T00:26:35;32.20;30.61;34.62;;
69620;Laerm;57654;51.434;5.984;2022-08-30T00:26:45;32.12;30.34;34.61;;
69620;Laerm;57654;51.434;5.984;2022-08-30T00:26:55;32.21;30.61;34.63;;
69620;Laerm;57654;51.434;5.984;2022-08-30T00:27:06;32.53;30.67;34.40;;
69620;Laerm;57654;51.434;5.984;2022-08-30T00:27:16;36.17;31.17;41.95;;
69620;Laerm;57654;51.434;5.984;2022-08-30T00:27:26;48.17;40.17;51.39;;
69620;Laerm;57654;51.434;5.984;2022-08-30T00:27:37;49.26;47.70;51.14;;
69620;Laerm;57654;51.434;5.984;2022-08-30T00:27:48;50.52;48.65;51.98;;
69620;Laerm;57654;51.434;5.984;2022-08-30T00:27:58;46.87;41.59;51.58;;
69620;Laerm;57654;51.434;5.984;2022-08-30T00:28:09;41.81;37.96;45.36;;
69620;Laerm;57654;51.434;5.984;2022-08-30T00:28:20;38.31;35.30;42.10;;
69620;Laerm;57654;51.434;5.984;2022-08-30T00:28:30;36.92;34.27;39.77;;
69620;Laerm;57654;51.434;5.984;2022-08-30T00:28:42;35.94;32.56;39.57;;
69620;Laerm;57654;51.434;5.984;2022-08-30T00:28:53;35.53;32.49;38.18;;
69620;Laerm;57654;51.434;5.984;2022-08-30T00:29:04;35.02;31.86;37.85;;
69620;Laerm;57654;51.434;5.984;2022-08-30T00:29:14;34.36;31.62;38.21;;
69620;Laerm;57654;51.434;5.984;2022-08-30T00:29:24;34.02;31.03;38.94;;
69620;Laerm;57654;51.434;5.984;2022-08-30T00:29:35;37.73;33.16;42.07;;
69620;Laerm;57654;51.434;5.984;2022-08-30T00:29:45;35.38;32.22;39.44;;
69620;Laerm;57654;51.434;5.984;2022-08-30T00:29:56;36.91;32.73;43.23;;
69620;Laerm;57654;51.434;5.984;2022-08-30T00:30:06;34.11;31.54;36.78;;
69620;Laerm;57654;51.434;5.984;2022-08-30T00:30:17;33.83;31.60;37.65;;
69620;Laerm;57654;51.434;5.984;2022-08-30T00:30:28;33.56;31.52;36.40;;
69620;Laerm;57654;51.434;5.984;2022-08-30T00:30:38;32.88;31.26;34.76;;
69620;Laerm;57654;51.434;5.984;2022-08-30T00:30:49;33.53;31.52;35.53;;
69620;Laerm;57654;51.434;5.984;2022-08-30T00:31:00;33.65;31.52;36.00;;
69620;Laerm;57654;51.434;5.984;2022-08-30T00:31:11;33.43;31.56;35.66;;
69620;Laerm;57654;51.434;5.984;2022-08-30T00:31:21;32.99;31.22;35.05;;
69620;Laerm;57654;51.434;5.984;2022-08-30T00:31:31;32.86;30.78;34.75;;
69620;Laerm;57654;51.434;5.984;2022-08-30T00:31:41;32.65;30.79;34.53;;
69620;Laerm;57654;51.434;5.984;2022-08-30T00:31:52;32.59;30.60;34.45;;
69620;Laerm;57654;51.434;5.984;2022-08-30T00:32:02;32.74;30.97;35.07;;
69620;Laerm;57654;51.434;5.984;2022-08-30T00:32:13;32.84;31.00;35.47;;
69620;Laerm;57654;51.434;5.984;2022-08-30T00:32:25;33.05;30.84;36.58;;
69620;Laerm;57654;51.434;5.984;2022-08-30T00:32:35;32.72;30.93;34.69;;
69620;Laerm;57654;51.434;5.984;2022-08-30T00:32:46;33.29;31.06;35.98;;
69620;Laerm;57654;51.434;5.984;2022-08-30T00:32:56;32.63;30.69;35.60;;
69620;Laerm;57654;51.434;5.984;2022-08-30T00:33:08;32.43;30.17;34.68;;
69620;Laerm;57654;51.434;5.984;2022-08-30T00:33:19;32.61;30.62;34.85;;
69620;Laerm;57654;51.434;5.984;2022-08-30T00:33:31;32.46;30.88;34.61;;
69620;Laerm;57654;51.434;5.984;2022-08-30T00:33:41;32.39;30.67;34.59;;
69620;Laerm;57654;51.434;5.984;2022-08-30T00:33:51;33.22;30.99;37.39;;
69620;Laerm;57654;51.434;5.984;2022-08-30T00:34:02;43.79;35.19;48.78;;
69620;Laerm;57654;51.434;5.984;2022-08-30T00:34:12;46.87;45.26;48.36;;
69620;Laerm;57654;51.434;5.984;2022-08-30T00:34:22;46.62;43.93;48.31;;
69620;Laerm;57654;51.434;5.984;2022-08-30T00:34:33;42.66;36.44;46.46;;
69620;Laerm;57654;51.434;5.984;2022-08-30T00:34:43;36.05;33.45;41.76;;
69620;Laerm;57654;51.434;5.984;2022-08-30T00:34:53;34.60;32.68;37.57;;
69620;Laerm;57654;51.434;5.984;2022-08-30T00:35:05;33.90;32.15;41.93;;
69620;Laerm;57654;51.434;5.984;2022-08-30T00:35:16;33.39;31.64;35.53;;
69620;Laerm;57654;51.434;5.984;2022-08-30T00:35:29;32.58;30.78;34.16;;
69620;Laerm;57654;51.434;5.984;2022-08-30T00:35:39;32.50;30.90;34.31;;
69620;Laerm;57654;51.434;5.984;2022-08-30T00:35:50;32.38;30.67;34.40;;
69620;Laerm;57654;51.434;5.984;2022-08-30T00:36:00;32.77;30.90;34.75;;
69620;Laerm;57654;51.434;5.984;2022-08-30T00:36:10;32.32;30.64;34.48;;
69620;Laerm;57654;51.434;5.984;2022-08-30T00:36:21;32.36;30.78;34.04;;
69620;Laerm;57654;51.434;5.984;2022-08-30T00:36:31;32.52;30.73;38.51;;
69620;Laerm;57654;51.434;5.984;2022-08-30T00:36:42;32.49;30.44;35.23;;
69620;Laerm;57654;51.434;5.984;2022-08-30T00:36:53;32.76;30.84;35.26;;
69620;Laerm;57654;51.434;5.984;2022-08-30T00:37:03;37.81;31.76;42.42;;
69620;Laerm;57654;51.434;5.984;2022-08-30T00:37:13;37.27;31.81;43.98;;
69620;Laerm;57654;51.434;5.984;2022-08-30T00:37:24;33.19;31.52;34.98;;
69620;Laerm;57654;51.434;5.984;2022-08-30T00:37:34;32.55;30.87;35.27;;
69620;Laerm;57654;51.434;5.984;2022-08-30T00:37:44;32.38;30.59;41.07;;
69620;Laerm;57654;51.434;5.984;2022-08-30T00:37:55;32.28;30.80;33.98;;
69620;Laerm;57654;51.434;5.984;2022-08-30T00:38:06;32.18;30.70;33.90;;
69620;Laerm;57654;51.434;5.984;2022-08-30T00:38:16;31.99;30.05;33.44;;
69620;Laerm;57654;51.434;5.984;2022-08-30T00:38:27;31.96;30.38;34.19;;
69620;Laerm;57654;51.434;5.984;2022-08-30T00:38:37;32.01;29.81;34.46;;
69620;Laerm;57654;51.434;5.984;2022-08-30T00:38:47;32.07;30.39;33.86;;
69620;Laerm;57654;51.434;5.984;2022-08-30T00:38:57;32.18;30.76;34.88;;
69620;Laerm;57654;51.434;5.984;2022-08-30T00:39:08;32.04;29.99;34.13;;
69620;Laerm;57654;51.434;5.984;2022-08-30T00:39:18;32.05;30.44;33.71;;
69620;Laerm;57654;51.434;5.984;2022-08-30T00:39:28;31.92;30.35;33.90;;
69620;Laerm;57654;51.434;5.984;2022-08-30T00:39:39;32.04;30.76;34.34;;
69620;Laerm;57654;51.434;5.984;2022-08-30T00:39:49;32.02;30.70;33.84;;
69620;Laerm;57654;51.434;5.984;2022-08-30T00:40:00;32.01;30.28;33.87;;
69620;Laerm;57654;51.434;5.984;2022-08-30T00:40:11;32.03;30.56;35.71;;
69620;Laerm;57654;51.434;5.984;2022-08-30T00:40:26;31.93;30.44;34.04;;
69620;Laerm;57654;51.434;5.984;2022-08-30T00:40:41;32.03;30.45;33.69;;
69620;Laerm;57654;51.434;5.984;2022-08-30T00:40:53;31.99;30.05;34.00;;
69620;Laerm;57654;51.434;5.984;2022-08-30T00:41:03;31.88;30.53;33.44;;
69620;Laerm;57654;51.434;5.984;2022-08-30T00:41:13;31.97;30.24;33.49;;
69620;Laerm;57654;51.434;5.984;2022-08-30T00:41:24;32.01;30.65;33.90;;
69620;Laerm;57654;51.434;5.984;2022-08-30T00:41:34;31.90;30.28;34.99;;
69620;Laerm;57654;51.434;5.984;2022-08-30T00:41:44;32.13;30.73;34.32;;
69620;Laerm;57654;51.434;5.984;2022-08-30T00:41:55;34.50;30.78;40.03;;
69620;Laerm;57654;51.434;5.984;2022-08-30T00:42:06;45.94;38.88;49.20;;
69620;Laerm;57654;51.434;5.984;2022-08-30T00:42:18;48.99;47.06;50.94;;
69620;Laerm;57654;51.434;5.984;2022-08-30T00:42:29;47.29;39.18;50.97;;
69620;Laerm;57654;51.434;5.984;2022-08-30T00:42:40;37.98;35.28;40.25;;
69620;Laerm;57654;51.434;5.984;2022-08-30T00:42:51;35.24;33.45;37.79;;
69620;Laerm;57654;51.434;5.984;2022-08-30T00:43:03;33.74;32.01;35.41;;
69620;Laerm;57654;51.434;5.984;2022-08-30T00:43:19;33.54;31.82;35.30;;
69620;Laerm;57654;51.434;5.984;2022-08-30T00:43:30;32.63;30.53;34.43;;
69620;Laerm;57654;51.434;5.984;2022-08-30T00:43:43;32.72;30.37;34.99;;
69620;Laerm;57654;51.434;5.984;2022-08-30T00:43:53;32.46;30.61;35.63;;
69620;Laerm;57654;51.434;5.984;2022-08-30T00:44:03;32.37;30.80;34.34;;
69620;Laerm;57654;51.434;5.984;2022-08-30T00:44:13;33.21;31.40;35.60;;
69620;Laerm;57654;51.434;5.984;2022-08-30T00:44:24;32.94;31.02;35.44;;
69620;Laerm;57654;51.434;5.984;2022-08-30T00:44:34;32.88;30.44;36.34;;
69620;Laerm;57654;51.434;5.984;2022-08-30T00:44:45;32.44;30.86;34.29;;
69620;Laerm;57654;51.434;5.984;2022-08-30T00:44:56;32.78;30.73;34.84;;
69620;Laerm;57654;51.434;5.984;2022-08-30T00:45:09;34.66;30.60;48.59;;
69620;Laerm;57654;51.434;5.984;2022-08-30T00:45:21;32.28;30.72;34.20;;
69620;Laerm;57654;51.434;5.984;2022-08-30T00:45:33;32.08;30.39;34.16;;
69620;Laerm;57654;51.434;5.984;2022-08-30T00:45:43;32.11;30.49;34.51;;
69620;Laerm;57654;51.434;5.984;2022-08-30T00:45:54;32.05;30.54;34.10;;
69620;Laerm;57654;51.434;5.984;2022-08-30T00:46:04;32.86;30.10;46.01;;
69620;Laerm;57654;51.434;5.984;2022-08-30T00:46:17;32.22;30.34;34.84;;
69620;Laerm;57654;51.434;5.984;2022-08-30T00:46:29;32.43;31.01;34.96;;
69620;Laerm;57654;51.434;5.984;2022-08-30T00:46:39;32.31;30.89;34.04;;
69620;Laerm;57654;51.434;5.984;2022-08-30T00:46:49;32.38;30.66;34.52;;
69620;Laerm;57654;51.434;5.984;2022-08-30T00:46:59;32.20;30.74;34.94;;
69620;Laerm;57654;51.434;5.984;2022-08-30T00:47:10;32.22;30.61;35.55;;
69620;Laerm;57654;51.434;5.984;2022-08-30T00:47:20;32.37;31.05;34.22;;
69620;Laerm;57654;51.434;5.984;2022-08-30T00:47:30;32.23;30.44;34.29;;
69620;Laerm;57654;51.434;5.984;2022-08-30T00:47:41;32.26;31.10;34.24;;
69620;Laerm;57654;51.434;5.984;2022-08-30T00:47:51;32.16;30.41;33.98;;
69620;Laerm;57654;51.434;5.984;2022-08-30T00:48:01;32.45;30.80;34.54;;
69620;Laerm;57654;51.434;5.984;2022-08-30T00:48:12;32.33;30.89;34.67;;
69620;Laerm;57654;51.434;5.984;2022-08-30T00:48:22;32.42;30.77;35.13;;
69620;Laerm;57654;51.434;5.984;2022-08-30T00:48:32;32.27;30.67;34.43;;
69620;Laerm;57654;51.434;5.984;2022-08-30T00:48:45;32.57;30.74;34.91;;
69620;Laerm;57654;51.434;5.984;2022-08-30T00:48:57;32.47;30.42;34.43;;
69620;Laerm;57654;51.434;5.984;2022-08-30T00:49:10;32.22;30.20;34.84;;
69620;Laerm;57654;51.434;5.984;2022-08-30T00:49:21;31.78;30.47;35.86;;
69620;Laerm;57654;51.434;5.984;2022-08-30T00:49:32;31.83;30.24;33.55;;
69620;Laerm;57654;51.434;5.984;2022-08-30T00:49:47;31.89;30.57;33.68;;
69620;Laerm;57654;51.434;5.984;2022-08-30T00:49:58;37.03;30.09;44.99;;
69620;Laerm;57654;51.434;5.984;2022-08-30T00:50:09;48.60;43.52;50.92;;
69620;Laerm;57654;51.434;5.984;2022-08-30T00:50:21;50.14;47.71;52.27;;
69620;Laerm;57654;51.434;5.984;2022-08-30T00:50:34;48.81;38.88;53.46;;
69620;Laerm;57654;51.434;5.984;2022-08-30T00:50:46;38.10;35.66;41.16;;
69620;Laerm;57654;51.434;5.984;2022-08-30T00:51:00;36.95;34.39;39.37;;
69620;Laerm;57654;51.434;5.984;2022-08-30T00:51:12;34.32;32.66;36.93;;
69620;Laerm;57654;51.434;5.984;2022-08-30T00:51:23;34.39;32.38;37.15;;
69620;Laerm;57654;51.434;5.984;2022-08-30T00:51:35;33.14;31.34;35.61;;
69620;Laerm;57654;51.434;5.984;2022-08-30T00:51:45;33.45;31.28;45.09;;
69620;Laerm;57654;51.434;5.984;2022-08-30T00:51:56;32.79;31.02;34.64;;
69620;Laerm;57654;51.434;5.984;2022-08-30T00:52:07;32.70;31.04;34.51;;
69620;Laerm;57654;51.434;5.984;2022-08-30T00:52:18;32.82;30.60;34.96;;
69620;Laerm;57654;51.434;5.984;2022-08-30T00:52:29;32.91;31.40;34.77;;
69620;Laerm;57654;51.434;5.984;2022-08-30T00:52:40;32.95;31.14;35.29;;
69620;Laerm;57654;51.434;5.984;2022-08-30T00:52:51;32.58;30.90;34.59;;
69620;Laerm;57654;51.434;5.984;2022-08-30T00:53:03;32.31;30.55;36.92;;
69620;Laerm;57654;51.434;5.984;2022-08-30T00:53:16;32.17;30.51;34.46;;
69620;Laerm;57654;51.434;5.984;2022-08-30T00:53:28;32.03;30.26;34.72;;
69620;Laerm;57654;51.434;5.984;2022-08-30T00:53:41;31.91;30.50;35.52;;
69620;Laerm;57654;51.434;5.984;2022-08-30T00:53:54;31.82;30.18;33.36;;
69620;Laerm;57654;51.434;5.984;2022-08-30T00:54:05;31.84;30.37;35.00;;
69620;Laerm;57654;51.434;5.984;2022-08-30T00:54:16;32.47;30.19;47.03;;
69620;Laerm;57654;51.434;5.984;2022-08-30T00:54:28;31.53;29.95;33.44;;
69620;Laerm;57654;51.434;5.984;2022-08-30T00:54:41;31.89;30.19;34.12;;
69620;Laerm;57654;51.434;5.984;2022-08-30T00:54:53;32.03;30.51;34.06;;
69620;Laerm;57654;51.434;5.984;2022-08-30T00:55:04;31.75;30.32;33.96;;
69620;Laerm;57654;51.434;5.984;2022-08-30T00:55:15;32.00;30.28;34.93;;
69620;Laerm;57654;51.434;5.984;2022-08-30T00:55:26;32.13;30.56;35.38;;
69620;Laerm;57654;51.434;5.984;2022-08-30T00:55:39;36.07;30.88;43.50;;
69620;Laerm;57654;51.434;5.984;2022-08-30T00:55:50;48.65;42.24;51.33;;
69620;Laerm;57654;51.434;5.984;2022-08-30T00:56:01;48.38;46.12;50.12;;
69620;Laerm;57654;51.434;5.984;2022-08-30T00:56:11;47.48;42.10;50.31;;
69620;Laerm;57654;51.434;5.984;2022-08-30T00:56:22;40.49;36.14;45.11;;
69620;Laerm;57654;51.434;5.984;2022-08-30T00:56:34;38.73;36.06;42.39;;
69620;Laerm;57654;51.434;5.984;2022-08-30T00:56:45;36.25;34.40;38.04;;
69620;Laerm;57654;51.434;5.984;2022-08-30T00:56:56;35.68;33.09;39.80;;
69620;Laerm;57654;51.434;5.984;2022-08-30T00:57:08;33.61;31.54;35.13;;
69620;Laerm;57654;51.434;5.984;2022-08-30T00:57:19;33.56;31.76;35.79;;
69620;Laerm;57654;51.434;5.984;2022-08-30T00:57:29;32.73;31.01;35.38;;
69620;Laerm;57654;51.434;5.984;2022-08-30T00:57:41;32.90;30.94;35.14;;
69620;Laerm;57654;51.434;5.984;2022-08-30T00:57:52;33.01;31.07;35.32;;
69620;Laerm;57654;51.434;5.984;2022-08-30T00:58:05;32.74;30.68;35.21;;
69620;Laerm;57654;51.434;5.984;2022-08-30T00:58:18;33.51;31.53;40.55;;
69620;Laerm;57654;51.434;5.984;2022-08-30T00:58:32;32.80;31.24;35.95;;
69620;Laerm;57654;51.434;5.984;2022-08-30T00:58:44;32.69;31.04;34.62;;
69620;Laerm;57654;51.434;5.984;2022-08-30T00:58:56;35.12;31.90;40.92;;
69620;Laerm;57654;51.434;5.984;2022-08-30T00:59:07;49.40;39.17;53.50;;
69620;Laerm;57654;51.434;5.984;2022-08-30T00:59:18;49.07;46.08;52.86;;
69620;Laerm;57654;51.434;5.984;2022-08-30T00:59:30;45.93;40.93;50.08;;
69620;Laerm;57654;51.434;5.984;2022-08-30T00:59:42;49.70;47.05;51.42;;
69620;Laerm;57654;51.434;5.984;2022-08-30T00:59:53;48.58;45.57;50.88;;
69620;Laerm;57654;51.434;5.984;2022-08-30T01:00:04;43.17;35.70;48.63;;
69620;Laerm;57654;51.434;5.984;2022-08-30T01:00:15;33.98;31.30;38.57;;
69620;Laerm;57654;51.434;5.984;2022-08-30T01:00:25;32.61;31.30;34.77;;
69620;Laerm;57654;51.434;5.984;2022-08-30T01:00:35;34.89;30.84;49.10;;
69620;Laerm;57654;51.434;5.984;2022-08-30T01:00:49;32.59;30.67;34.61;;
69620;Laerm;57654;51.434;5.984;2022-08-30T01:01:02;32.28;30.62;34.59;;
69620;Laerm;57654;51.434;5.984;2022-08-30T01:01:14;32.24;30.64;34.18;;
69620;Laerm;57654;51.434;5.984;2022-08-30T01:01:25;32.35;30.69;34.37;;
69620;Laerm;57654;51.434;5.984;2022-08-30T01:01:36;32.19;30.63;41.04;;
69620;Laerm;57654;51.434;5.984;2022-08-30T01:01:46;32.19;30.14;34.58;;
69620;Laerm;57654;51.434;5.984;2022-08-30T01:01:57;32.95;30.56;36.45;;
69620;Laerm;57654;51.434;5.984;2022-08-30T01:02:07;32.17;30.01;37.09;;
69620;Laerm;57654;51.434;5.984;2022-08-30T01:02:20;31.96;29.74;35.06;;
69620;Laerm;57654;51.434;5.984;2022-08-30T01:02:31;35.30;30.46;41.94;;